This is the latest recevied weather packets stored in our database for station/object F4ETJ-1. If no packets are shown the sender has not sent any weather packets the latest 10 day(s).
| Time | Temp. | Humidity | Pressure | Rain* | Wind** | Luminosity | Snow |
|---|---|---|---|---|---|---|---|
| 1777532688 | 15.56° C | 79% | 1012.5 hPa | 0 mm | - | - | - |
| 1777532327 | 15.56° C | 79% | 1012.5 hPa | 0 mm | - | - | - |
| 1777531967 | 15.56° C | 80% | 1012.4 hPa | 0 mm | - | - | - |
| 1777531607 | 15.56° C | 80% | 1012.3 hPa | 0 mm | - | - | - |
| 1777531247 | 15.56° C | 82% | 1012.2 hPa | 0 mm | - | - | - |
| 1777530886 | 15.56° C | 82% | 1012 hPa | 0 mm | - | - | - |
| 1777530526 | 15° C | 81% | 1012 hPa | 0 mm | - | - | - |
| 1777530165 | 15° C | 81% | 1011.9 hPa | 0 mm | - | - | - |
| 1777529805 | 15° C | 82% | 1011.9 hPa | 0 mm | - | - | - |
| 1777529445 | 14.44° C | 84% | 1011.8 hPa | 0 mm | - | - | - |
| 1777529084 | 14.44° C | 85% | 1011.6 hPa | 0 mm | - | - | - |
| 1777528724 | 14.44° C | 86% | 1011.5 hPa | 0 mm | - | - | - |
| 1777528364 | 13.89° C | 88% | 1011.4 hPa | 0 mm | - | - | - |
| 1777528004 | 13.89° C | 91% | 1011.4 hPa | 0 mm | - | - | - |
| 1777527643 | 13.33° C | 92% | 1011.3 hPa | 0 mm | - | - | - |
| 1777527283 | 13.33° C | 92% | 1011.3 hPa | 0 mm | - | - | - |
| 1777526922 | 13.33° C | 92% | 1011.4 hPa | 0 mm | - | - | - |
| 1777526562 | 13.33° C | 93% | 1011.4 hPa | 0 mm | - | - | - |
| 1777526202 | 13.33° C | 93% | 1011.4 hPa | 0 mm | - | - | - |
| 1777525842 | 13.33° C | 93% | 1011.4 hPa | 0 mm | - | - | - |
| 1777505377 | 15° C | 89% | 1009.7 hPa | 0 mm | - | - | - |
| 1777505016 | 15° C | 89% | 1009.7 hPa | 0 mm | - | - | - |
| 1777504656 | 15.56° C | 90% | 1009.7 hPa | 0 mm | - | - | - |
| 1777504296 | 15° C | 90% | 1009.8 hPa | 0 mm | - | - | - |
| 1777503935 | 15° C | 90% | 1009.6 hPa | 0 mm | - | - | - |
* Rain latest hour (hover to see other rain measurements)
** Current wind speed in m/s (hover to see current wind gust speed)